sensor_id;sensor_type;location;lat;lon;timestamp;P1;durP1;ratioP1;P2;durP2;ratioP2
313;SDS011;143;51.634;7.112;2023-03-03T00:00:26;39.27;;;19.60;;
313;SDS011;143;51.634;7.112;2023-03-03T00:02:52;47.30;;;21.40;;
313;SDS011;143;51.634;7.112;2023-03-03T00:05:17;43.77;;;21.50;;
313;SDS011;143;51.634;7.112;2023-03-03T00:07:43;43.83;;;20.33;;
313;SDS011;143;51.634;7.112;2023-03-03T00:10:10;40.40;;;19.10;;
313;SDS011;143;51.634;7.112;2023-03-03T00:12:42;43.72;;;20.92;;
313;SDS011;143;51.634;7.112;2023-03-03T00:15:14;38.85;;;19.55;;
313;SDS011;143;51.634;7.112;2023-03-03T00:17:42;38.95;;;18.75;;
313;SDS011;143;51.634;7.112;2023-03-03T00:22:52;40.28;;;19.17;;
313;SDS011;143;51.634;7.112;2023-03-03T00:28:04;36.65;;;19.30;;
313;SDS011;143;51.634;7.112;2023-03-03T00:30:42;39.50;;;19.27;;
313;SDS011;143;51.634;7.112;2023-03-03T00:33:23;30.87;;;16.47;;
313;SDS011;143;51.634;7.112;2023-03-03T00:36:19;38.50;;;20.13;;
313;SDS011;143;51.634;7.112;2023-03-03T00:41:59;36.63;;;16.33;;
313;SDS011;143;51.634;7.112;2023-03-03T00:47:51;36.60;;;18.48;;
313;SDS011;143;51.634;7.112;2023-03-03T00:52:32;35.28;;;17.98;;
313;SDS011;143;51.634;7.112;2023-03-03T00:55:00;40.20;;;17.85;;
313;SDS011;143;51.634;7.112;2023-03-03T00:57:26;34.00;;;16.98;;
313;SDS011;143;51.634;7.112;2023-03-03T00:59:52;32.73;;;17.43;;
313;SDS011;143;51.634;7.112;2023-03-03T01:02:18;45.30;;;19.43;;
313;SDS011;143;51.634;7.112;2023-03-03T01:04:44;38.33;;;19.23;;
313;SDS011;143;51.634;7.112;2023-03-03T01:07:14;37.35;;;16.67;;
313;SDS011;143;51.634;7.112;2023-03-03T01:09:40;41.28;;;19.77;;
313;SDS011;143;51.634;7.112;2023-03-03T01:12:06;34.33;;;18.10;;
313;SDS011;143;51.634;7.112;2023-03-03T01:14:32;38.80;;;19.50;;
313;SDS011;143;51.634;7.112;2023-03-03T01:16:58;41.17;;;19.13;;
313;SDS011;143;51.634;7.112;2023-03-03T01:19:24;43.00;;;21.20;;
313;SDS011;143;51.634;7.112;2023-03-03T01:21:50;38.60;;;17.47;;
313;SDS011;143;51.634;7.112;2023-03-03T01:24:15;39.57;;;19.97;;
313;SDS011;143;51.634;7.112;2023-03-03T01:26:41;40.77;;;19.10;;
313;SDS011;143;51.634;7.112;2023-03-03T01:29:07;40.17;;;19.97;;
313;SDS011;143;51.634;7.112;2023-03-03T01:31:33;35.93;;;18.50;;
313;SDS011;143;51.634;7.112;2023-03-03T01:33:59;37.90;;;18.90;;
313;SDS011;143;51.634;7.112;2023-03-03T01:36:25;34.35;;;19.08;;
313;SDS011;143;51.634;7.112;2023-03-03T01:38:51;42.67;;;19.17;;
313;SDS011;143;51.634;7.112;2023-03-03T01:41:17;43.50;;;19.90;;
313;SDS011;143;51.634;7.112;2023-03-03T01:43:44;34.87;;;17.67;;
313;SDS011;143;51.634;7.112;2023-03-03T01:46:26;37.22;;;17.38;;
313;SDS011;143;51.634;7.112;2023-03-03T01:48:58;39.20;;;18.80;;
313;SDS011;143;51.634;7.112;2023-03-03T01:51:51;37.70;;;18.55;;
313;SDS011;143;51.634;7.112;2023-03-03T01:54:30;35.63;;;16.48;;
313;SDS011;143;51.634;7.112;2023-03-03T01:57:02;38.33;;;18.17;;
313;SDS011;143;51.634;7.112;2023-03-03T01:59:32;35.88;;;17.55;;
313;SDS011;143;51.634;7.112;2023-03-03T02:02:01;40.60;;;19.38;;
313;SDS011;143;51.634;7.112;2023-03-03T02:04:27;34.83;;;17.65;;
313;SDS011;143;51.634;7.112;2023-03-03T02:06:54;35.70;;;16.07;;
313;SDS011;143;51.634;7.112;2023-03-03T02:09:26;36.28;;;18.75;;
313;SDS011;143;51.634;7.112;2023-03-03T02:11:55;36.17;;;17.05;;
313;SDS011;143;51.634;7.112;2023-03-03T02:14:24;39.17;;;17.58;;
313;SDS011;143;51.634;7.112;2023-03-03T02:16:50;32.88;;;16.55;;
313;SDS011;143;51.634;7.112;2023-03-03T02:22:14;40.92;;;18.33;;
313;SDS011;143;51.634;7.112;2023-03-03T02:24:47;40.35;;;18.00;;
313;SDS011;143;51.634;7.112;2023-03-03T02:27:17;41.10;;;19.63;;
313;SDS011;143;51.634;7.112;2023-03-03T02:29:43;34.00;;;17.23;;
313;SDS011;143;51.634;7.112;2023-03-03T02:32:09;37.67;;;17.60;;
313;SDS011;143;51.634;7.112;2023-03-03T02:35:18;41.27;;;18.70;;
313;SDS011;143;51.634;7.112;2023-03-03T02:37:46;38.03;;;17.70;;
313;SDS011;143;51.634;7.112;2023-03-03T02:40:13;38.63;;;18.55;;
313;SDS011;143;51.634;7.112;2023-03-03T02:42:39;39.17;;;19.40;;
313;SDS011;143;51.634;7.112;2023-03-03T02:45:06;40.63;;;18.90;;
313;SDS011;143;51.634;7.112;2023-03-03T02:47:32;37.70;;;18.23;;
313;SDS011;143;51.634;7.112;2023-03-03T02:49:58;42.33;;;19.63;;
313;SDS011;143;51.634;7.112;2023-03-03T02:52:23;39.00;;;18.60;;
313;SDS011;143;51.634;7.112;2023-03-03T02:54:49;43.60;;;18.60;;
313;SDS011;143;51.634;7.112;2023-03-03T02:57:15;38.37;;;19.10;;
313;SDS011;143;51.634;7.112;2023-03-03T02:59:40;45.07;;;19.87;;
313;SDS011;143;51.634;7.112;2023-03-03T03:02:06;43.50;;;19.13;;
313;SDS011;143;51.634;7.112;2023-03-03T03:04:33;46.28;;;20.95;;
313;SDS011;143;51.634;7.112;2023-03-03T03:06:58;40.30;;;19.53;;
313;SDS011;143;51.634;7.112;2023-03-03T03:09:24;45.00;;;20.73;;
313;SDS011;143;51.634;7.112;2023-03-03T03:11:50;48.37;;;21.07;;
313;SDS011;143;51.634;7.112;2023-03-03T03:14:16;43.90;;;20.53;;
313;SDS011;143;51.634;7.112;2023-03-03T03:16:41;42.70;;;20.00;;
313;SDS011;143;51.634;7.112;2023-03-03T03:19:07;44.33;;;20.77;;
313;SDS011;143;51.634;7.112;2023-03-03T03:21:33;42.47;;;19.83;;
313;SDS011;143;51.634;7.112;2023-03-03T03:23:59;47.20;;;21.67;;
313;SDS011;143;51.634;7.112;2023-03-03T03:26:25;40.03;;;20.50;;
313;SDS011;143;51.634;7.112;2023-03-03T03:28:51;39.67;;;19.25;;
313;SDS011;143;51.634;7.112;2023-03-03T03:31:18;44.95;;;20.50;;
313;SDS011;143;51.634;7.112;2023-03-03T03:33:44;47.08;;;21.98;;
313;SDS011;143;51.634;7.112;2023-03-03T03:36:10;46.97;;;21.10;;
313;SDS011;143;51.634;7.112;2023-03-03T03:38:36;45.90;;;22.67;;
313;SDS011;143;51.634;7.112;2023-03-03T03:41:02;51.93;;;22.50;;
313;SDS011;143;51.634;7.112;2023-03-03T03:43:30;49.17;;;21.42;;
313;SDS011;143;51.634;7.112;2023-03-03T03:45:55;51.07;;;21.97;;
313;SDS011;143;51.634;7.112;2023-03-03T03:48:21;55.80;;;23.10;;
313;SDS011;143;51.634;7.112;2023-03-03T03:50:47;51.87;;;23.47;;
313;SDS011;143;51.634;7.112;2023-03-03T03:53:13;45.42;;;20.60;;
313;SDS011;143;51.634;7.112;2023-03-03T03:55:40;50.25;;;20.70;;
313;SDS011;143;51.634;7.112;2023-03-03T03:58:05;58.87;;;24.00;;
313;SDS011;143;51.634;7.112;2023-03-03T04:00:31;56.73;;;24.30;;
313;SDS011;143;51.634;7.112;2023-03-03T04:02:57;54.57;;;22.90;;
313;SDS011;143;51.634;7.112;2023-03-03T04:05:22;50.50;;;21.63;;
313;SDS011;143;51.634;7.112;2023-03-03T04:07:48;64.83;;;23.30;;
313;SDS011;143;51.634;7.112;2023-03-03T04:10:14;62.50;;;25.17;;
313;SDS011;143;51.634;7.112;2023-03-03T04:12:39;61.67;;;25.90;;
313;SDS011;143;51.634;7.112;2023-03-03T04:15:06;59.03;;;25.80;;
313;SDS011;143;51.634;7.112;2023-03-03T04:17:34;56.22;;;23.88;;
313;SDS011;143;51.634;7.112;2023-03-03T04:20:00;58.87;;;24.00;;
313;SDS011;143;51.634;7.112;2023-03-03T04:22:27;60.60;;;24.13;;
313;SDS011;143;51.634;7.112;2023-03-03T04:24:57;56.50;;;24.95;;
313;SDS011;143;51.634;7.112;2023-03-03T04:27:33;65.95;;;25.13;;
313;SDS011;143;51.634;7.112;2023-03-03T04:29:59;56.53;;;24.00;;
313;SDS011;143;51.634;7.112;2023-03-03T04:32:25;63.08;;;25.45;;
313;SDS011;143;51.634;7.112;2023-03-03T04:34:51;58.00;;;25.03;;
313;SDS011;143;51.634;7.112;2023-03-03T04:37:18;64.10;;;26.58;;
313;SDS011;143;51.634;7.112;2023-03-03T04:39:44;61.57;;;26.10;;
313;SDS011;143;51.634;7.112;2023-03-03T04:42:10;57.67;;;25.40;;
313;SDS011;143;51.634;7.112;2023-03-03T04:44:36;58.10;;;23.88;;
313;SDS011;143;51.634;7.112;2023-03-03T04:47:02;64.90;;;26.97;;
313;SDS011;143;51.634;7.112;2023-03-03T04:49:28;61.83;;;25.73;;
313;SDS011;143;51.634;7.112;2023-03-03T04:51:53;60.37;;;26.90;;
313;SDS011;143;51.634;7.112;2023-03-03T04:54:19;56.50;;;24.83;;
313;SDS011;143;51.634;7.112;2023-03-03T04:56:45;57.53;;;25.57;;
313;SDS011;143;51.634;7.112;2023-03-03T04:59:11;59.17;;;24.75;;
313;SDS011;143;51.634;7.112;2023-03-03T05:01:37;64.15;;;25.13;;
313;SDS011;143;51.634;7.112;2023-03-03T05:04:03;56.87;;;25.00;;
313;SDS011;143;51.634;7.112;2023-03-03T05:06:29;54.33;;;25.23;;
313;SDS011;143;51.634;7.112;2023-03-03T05:08:54;55.00;;;24.33;;
313;SDS011;143;51.634;7.112;2023-03-03T05:11:20;66.23;;;24.67;;
313;SDS011;143;51.634;7.112;2023-03-03T05:13:46;63.43;;;26.60;;
313;SDS011;143;51.634;7.112;2023-03-03T05:16:11;58.67;;;25.47;;
313;SDS011;143;51.634;7.112;2023-03-03T05:18:37;57.10;;;25.10;;
313;SDS011;143;51.634;7.112;2023-03-03T05:21:03;65.07;;;24.50;;
313;SDS011;143;51.634;7.112;2023-03-03T05:23:29;57.60;;;26.03;;
313;SDS011;143;51.634;7.112;2023-03-03T05:25:55;68.72;;;27.52;;
313;SDS011;143;51.634;7.112;2023-03-03T05:28:21;76.38;;;28.40;;
313;SDS011;143;51.634;7.112;2023-03-03T05:30:47;60.77;;;24.80;;
313;SDS011;143;51.634;7.112;2023-03-03T05:33:13;57.50;;;24.27;;
313;SDS011;143;51.634;7.112;2023-03-03T05:35:41;65.47;;;26.60;;
313;SDS011;143;51.634;7.112;2023-03-03T05:38:07;53.47;;;23.95;;
313;SDS011;143;51.634;7.112;2023-03-03T05:40:33;61.07;;;26.13;;
313;SDS011;143;51.634;7.112;2023-03-03T05:42:58;56.50;;;23.73;;
313;SDS011;143;51.634;7.112;2023-03-03T05:45:24;57.43;;;25.37;;
313;SDS011;143;51.634;7.112;2023-03-03T05:47:50;62.63;;;25.20;;
313;SDS011;143;51.634;7.112;2023-03-03T05:50:16;58.20;;;24.90;;
313;SDS011;143;51.634;7.112;2023-03-03T05:52:46;64.95;;;25.05;;
313;SDS011;143;51.634;7.112;2023-03-03T05:55:13;61.15;;;25.85;;
313;SDS011;143;51.634;7.112;2023-03-03T05:57:39;59.77;;;24.60;;
313;SDS011;143;51.634;7.112;2023-03-03T06:00:05;57.40;;;24.30;;
313;SDS011;143;51.634;7.112;2023-03-03T06:02:32;55.08;;;24.80;;
313;SDS011;143;51.634;7.112;2023-03-03T06:04:58;61.17;;;25.55;;
313;SDS011;143;51.634;7.112;2023-03-03T06:07:24;64.37;;;23.27;;
313;SDS011;143;51.634;7.112;2023-03-03T06:09:50;59.73;;;23.90;;
313;SDS011;143;51.634;7.112;2023-03-03T06:12:16;52.83;;;23.67;;
313;SDS011;143;51.634;7.112;2023-03-03T06:14:41;58.97;;;24.53;;
313;SDS011;143;51.634;7.112;2023-03-03T06:17:07;61.93;;;23.80;;
313;SDS011;143;51.634;7.112;2023-03-03T06:19:33;58.13;;;24.30;;
313;SDS011;143;51.634;7.112;2023-03-03T06:21:58;55.13;;;23.60;;
313;SDS011;143;51.634;7.112;2023-03-03T06:24:24;59.33;;;24.70;;
313;SDS011;143;51.634;7.112;2023-03-03T06:26:54;60.50;;;23.58;;
313;SDS011;143;51.634;7.112;2023-03-03T06:29:20;62.47;;;25.27;;
313;SDS011;143;51.634;7.112;2023-03-03T06:31:46;58.10;;;24.00;;
313;SDS011;143;51.634;7.112;2023-03-03T06:34:12;56.40;;;23.97;;
313;SDS011;143;51.634;7.112;2023-03-03T06:36:37;63.57;;;25.37;;
313;SDS011;143;51.634;7.112;2023-03-03T06:39:03;56.83;;;23.15;;
313;SDS011;143;51.634;7.112;2023-03-03T06:41:29;57.23;;;23.17;;
313;SDS011;143;51.634;7.112;2023-03-03T06:43:55;59.37;;;22.87;;
313;SDS011;143;51.634;7.112;2023-03-03T06:46:22;66.22;;;23.38;;
313;SDS011;143;51.634;7.112;2023-03-03T06:48:48;59.43;;;24.13;;
313;SDS011;143;51.634;7.112;2023-03-03T06:51:33;62.13;;;24.67;;
313;SDS011;143;51.634;7.112;2023-03-03T06:54:05;65.63;;;25.27;;
313;SDS011;143;51.634;7.112;2023-03-03T06:56:36;64.60;;;25.13;;
313;SDS011;143;51.634;7.112;2023-03-03T06:59:04;61.60;;;25.58;;
313;SDS011;143;51.634;7.112;2023-03-03T07:01:42;57.97;;;24.73;;
313;SDS011;143;51.634;7.112;2023-03-03T07:06:59;59.88;;;24.33;;
313;SDS011;143;51.634;7.112;2023-03-03T07:09:31;70.82;;;26.05;;
313;SDS011;143;51.634;7.112;2023-03-03T07:12:01;73.00;;;26.67;;
313;SDS011;143;51.634;7.112;2023-03-03T07:14:33;68.25;;;24.90;;
313;SDS011;143;51.634;7.112;2023-03-03T07:17:08;64.82;;;24.48;;
313;SDS011;143;51.634;7.112;2023-03-03T07:19:44;63.88;;;24.92;;
313;SDS011;143;51.634;7.112;2023-03-03T07:22:12;59.65;;;23.60;;
313;SDS011;143;51.634;7.112;2023-03-03T07:24:47;64.15;;;25.23;;
313;SDS011;143;51.634;7.112;2023-03-03T07:29:45;63.83;;;24.35;;
313;SDS011;143;51.634;7.112;2023-03-03T07:32:21;63.60;;;24.52;;
313;SDS011;143;51.634;7.112;2023-03-03T07:34:47;64.13;;;24.30;;
313;SDS011;143;51.634;7.112;2023-03-03T07:39:59;56.70;;;22.05;;
313;SDS011;143;51.634;7.112;2023-03-03T07:42:37;64.68;;;25.38;;
313;SDS011;143;51.634;7.112;2023-03-03T07:45:26;65.68;;;24.58;;
313;SDS011;143;51.634;7.112;2023-03-03T07:50:33;69.60;;;24.33;;
313;SDS011;143;51.634;7.112;2023-03-03T07:52:59;56.78;;;21.80;;
313;SDS011;143;51.634;7.112;2023-03-03T07:55:30;66.93;;;24.30;;
313;SDS011;143;51.634;7.112;2023-03-03T08:03:07;52.37;;;20.23;;
313;SDS011;143;51.634;7.112;2023-03-03T08:05:47;60.92;;;22.92;;
313;SDS011;143;51.634;7.112;2023-03-03T08:08:20;61.30;;;22.25;;
313;SDS011;143;51.634;7.112;2023-03-03T08:10:56;68.43;;;21.75;;
313;SDS011;143;51.634;7.112;2023-03-03T08:13:23;54.72;;;21.17;;
313;SDS011;143;51.634;7.112;2023-03-03T08:16:03;59.28;;;22.08;;
313;SDS011;143;51.634;7.112;2023-03-03T08:18:51;60.08;;;20.35;;
313;SDS011;143;51.634;7.112;2023-03-03T08:21:21;56.22;;;19.92;;
313;SDS011;143;51.634;7.112;2023-03-03T08:23:49;55.95;;;21.02;;
313;SDS011;143;51.634;7.112;2023-03-03T08:26:16;58.97;;;21.10;;
313;SDS011;143;51.634;7.112;2023-03-03T08:28:43;62.17;;;20.90;;
313;SDS011;143;51.634;7.112;2023-03-03T08:31:09;54.08;;;20.05;;
313;SDS011;143;51.634;7.112;2023-03-03T08:33:35;57.17;;;20.58;;
313;SDS011;143;51.634;7.112;2023-03-03T08:36:01;46.93;;;18.90;;
313;SDS011;143;51.634;7.112;2023-03-03T08:38:26;62.37;;;20.43;;
313;SDS011;143;51.634;7.112;2023-03-03T08:40:52;57.17;;;20.67;;
313;SDS011;143;51.634;7.112;2023-03-03T08:43:18;61.40;;;19.83;;
313;SDS011;143;51.634;7.112;2023-03-03T08:45:47;51.88;;;19.08;;
313;SDS011;143;51.634;7.112;2023-03-03T08:48:14;48.25;;;21.50;;
313;SDS011;143;51.634;7.112;2023-03-03T08:50:41;54.10;;;21.23;;
313;SDS011;143;51.634;7.112;2023-03-03T08:53:09;57.35;;;20.80;;
313;SDS011;143;51.634;7.112;2023-03-03T08:55:36;50.40;;;19.58;;
313;SDS011;143;51.634;7.112;2023-03-03T08:58:02;58.73;;;23.03;;
313;SDS011;143;51.634;7.112;2023-03-03T09:00:28;54.63;;;20.90;;
313;SDS011;143;51.634;7.112;2023-03-03T09:02:54;60.60;;;20.10;;
313;SDS011;143;51.634;7.112;2023-03-03T09:05:20;51.50;;;22.42;;
313;SDS011;143;51.634;7.112;2023-03-03T09:07:47;50.28;;;20.42;;
313;SDS011;143;51.634;7.112;2023-03-03T09:10:15;63.53;;;22.38;;
313;SDS011;143;51.634;7.112;2023-03-03T09:12:51;60.95;;;21.42;;
313;SDS011;143;51.634;7.112;2023-03-03T09:18:09;54.72;;;20.65;;
313;SDS011;143;51.634;7.112;2023-03-03T09:20:50;50.85;;;18.92;;
313;SDS011;143;51.634;7.112;2023-03-03T09:28:50;47.88;;;19.13;;
313;SDS011;143;51.634;7.112;2023-03-03T09:31:53;57.75;;;19.90;;
313;SDS011;143;51.634;7.112;2023-03-03T09:34:37;43.50;;;18.67;;
313;SDS011;143;51.634;7.112;2023-03-03T09:37:14;46.58;;;18.35;;
313;SDS011;143;51.634;7.112;2023-03-03T09:39:45;52.30;;;19.75;;
313;SDS011;143;51.634;7.112;2023-03-03T09:50:59;46.35;;;17.45;;
313;SDS011;143;51.634;7.112;2023-03-03T10:04:36;52.78;;;19.42;;
313;SDS011;143;51.634;7.112;2023-03-03T10:18:45;45.17;;;18.65;;
313;SDS011;143;51.634;7.112;2023-03-03T10:24:04;49.42;;;20.30;;
313;SDS011;143;51.634;7.112;2023-03-03T10:40:31;29.05;;;12.07;;
313;SDS011;143;51.634;7.112;2023-03-03T10:48:32;31.13;;;11.27;;
313;SDS011;143;51.634;7.112;2023-03-03T10:59:57;32.45;;;12.18;;
313;SDS011;143;51.634;7.112;2023-03-03T11:05:39;29.58;;;12.50;;
313;SDS011;143;51.634;7.112;2023-03-03T11:21:40;26.23;;;10.05;;
313;SDS011;143;51.634;7.112;2023-03-03T11:24:27;28.30;;;11.23;;
313;SDS011;143;51.634;7.112;2023-03-03T11:35:28;32.38;;;13.15;;
313;SDS011;143;51.634;7.112;2023-03-03T11:38:10;26.02;;;12.05;;
313;SDS011;143;51.634;7.112;2023-03-03T11:40:48;24.95;;;10.48;;
313;SDS011;143;51.634;7.112;2023-03-03T11:43:50;25.83;;;10.20;;
313;SDS011;143;51.634;7.112;2023-03-03T11:46:26;25.70;;;10.75;;
313;SDS011;143;51.634;7.112;2023-03-03T11:49:01;35.15;;;12.05;;
313;SDS011;143;51.634;7.112;2023-03-03T11:54:08;32.10;;;12.02;;
313;SDS011;143;51.634;7.112;2023-03-03T11:56:47;33.00;;;12.98;;
313;SDS011;143;51.634;7.112;2023-03-03T12:02:11;32.08;;;11.90;;
313;SDS011;143;51.634;7.112;2023-03-03T12:04:59;29.45;;;11.63;;
313;SDS011;143;51.634;7.112;2023-03-03T12:08:13;29.87;;;12.80;;
313;SDS011;143;51.634;7.112;2023-03-03T12:16:24;26.00;;;12.50;;
313;SDS011;143;51.634;7.112;2023-03-03T12:22:23;26.87;;;11.43;;
313;SDS011;143;51.634;7.112;2023-03-03T12:24:56;28.33;;;11.20;;
313;SDS011;143;51.634;7.112;2023-03-03T12:27:55;45.90;;;19.60;;
313;SDS011;143;51.634;7.112;2023-03-03T12:30:36;57.20;;;23.40;;
313;SDS011;143;51.634;7.112;2023-03-03T12:33:21;69.97;;;25.23;;
313;SDS011;143;51.634;7.112;2023-03-03T12:38:52;47.20;;;18.83;;
313;SDS011;143;51.634;7.112;2023-03-03T12:52:45;25.73;;;11.63;;
313;SDS011;143;51.634;7.112;2023-03-03T12:57:47;25.17;;;12.80;;
313;SDS011;143;51.634;7.112;2023-03-03T13:12:31;32.17;;;13.07;;
313;SDS011;143;51.634;7.112;2023-03-03T13:14:56;29.93;;;14.03;;
313;SDS011;143;51.634;7.112;2023-03-03T13:20:02;31.03;;;14.30;;
313;SDS011;143;51.634;7.112;2023-03-03T13:22:54;30.07;;;14.10;;
313;SDS011;143;51.634;7.112;2023-03-03T13:25:33;27.40;;;13.90;;
313;SDS011;143;51.634;7.112;2023-03-03T13:28:05;29.40;;;12.87;;
313;SDS011;143;51.634;7.112;2023-03-03T13:30:51;33.80;;;14.57;;
313;SDS011;143;51.634;7.112;2023-03-03T13:33:29;30.73;;;13.60;;
313;SDS011;143;51.634;7.112;2023-03-03T13:35:59;31.23;;;14.70;;
313;SDS011;143;51.634;7.112;2023-03-03T13:41:04;30.00;;;14.33;;
313;SDS011;143;51.634;7.112;2023-03-03T13:43:48;31.13;;;13.90;;
313;SDS011;143;51.634;7.112;2023-03-03T13:49:22;30.70;;;13.77;;
313;SDS011;143;51.634;7.112;2023-03-03T13:52:00;26.07;;;13.00;;
313;SDS011;143;51.634;7.112;2023-03-03T14:02:55;25.57;;;13.00;;
313;SDS011;143;51.634;7.112;2023-03-03T14:05:40;28.90;;;12.10;;
313;SDS011;143;51.634;7.112;2023-03-03T14:17:16;27.90;;;12.53;;
313;SDS011;143;51.634;7.112;2023-03-03T14:22:55;28.43;;;11.87;;
313;SDS011;143;51.634;7.112;2023-03-03T14:25:24;22.03;;;11.00;;
313;SDS011;143;51.634;7.112;2023-03-03T14:28:01;26.20;;;11.10;;
313;SDS011;143;51.634;7.112;2023-03-03T14:30:41;24.57;;;10.40;;
313;SDS011;143;51.634;7.112;2023-03-03T14:35:34;25.80;;;11.00;;
313;SDS011;143;51.634;7.112;2023-03-03T14:38:15;22.40;;;11.07;;
313;SDS011;143;51.634;7.112;2023-03-03T14:40:44;27.00;;;11.60;;
313;SDS011;143;51.634;7.112;2023-03-03T14:43:18;23.07;;;10.50;;
313;SDS011;143;51.634;7.112;2023-03-03T14:45:50;22.83;;;9.80;;
313;SDS011;143;51.634;7.112;2023-03-03T14:50:48;25.53;;;11.30;;
313;SDS011;143;51.634;7.112;2023-03-03T14:55:42;24.67;;;10.67;;
313;SDS011;143;51.634;7.112;2023-03-03T15:01:06;21.67;;;10.63;;
313;SDS011;143;51.634;7.112;2023-03-03T15:03:36;22.90;;;10.53;;
313;SDS011;143;51.634;7.112;2023-03-03T15:06:12;25.03;;;12.13;;
313;SDS011;143;51.634;7.112;2023-03-03T15:08:52;30.00;;;12.80;;
313;SDS011;143;51.634;7.112;2023-03-03T15:11:29;22.47;;;10.63;;
313;SDS011;143;51.634;7.112;2023-03-03T15:14:31;27.67;;;12.73;;
313;SDS011;143;51.634;7.112;2023-03-03T15:17:10;30.67;;;13.70;;
313;SDS011;143;51.634;7.112;2023-03-03T15:20:02;28.43;;;14.33;;
313;SDS011;143;51.634;7.112;2023-03-03T15:27:47;27.10;;;13.00;;
313;SDS011;143;51.634;7.112;2023-03-03T15:30:38;31.23;;;13.27;;
313;SDS011;143;51.634;7.112;2023-03-03T15:33:18;41.43;;;15.77;;
313;SDS011;143;51.634;7.112;2023-03-03T15:36:07;33.13;;;15.40;;
313;SDS011;143;51.634;7.112;2023-03-03T15:42:06;37.90;;;17.50;;
313;SDS011;143;51.634;7.112;2023-03-03T15:47:41;31.10;;;14.97;;
313;SDS011;143;51.634;7.112;2023-03-03T15:50:39;29.00;;;13.97;;
313;SDS011;143;51.634;7.112;2023-03-03T15:59:05;27.27;;;12.20;;
313;SDS011;143;51.634;7.112;2023-03-03T16:01:39;29.80;;;12.40;;
313;SDS011;143;51.634;7.112;2023-03-03T16:04:25;27.93;;;11.93;;
313;SDS011;143;51.634;7.112;2023-03-03T16:07:08;32.77;;;13.77;;
313;SDS011;143;51.634;7.112;2023-03-03T16:18:39;30.77;;;12.20;;
313;SDS011;143;51.634;7.112;2023-03-03T16:24:07;33.20;;;14.07;;
313;SDS011;143;51.634;7.112;2023-03-03T16:26:47;31.40;;;14.03;;
313;SDS011;143;51.634;7.112;2023-03-03T16:34:40;27.03;;;10.80;;
313;SDS011;143;51.634;7.112;2023-03-03T16:37:39;23.73;;;11.13;;
313;SDS011;143;51.634;7.112;2023-03-03T16:40:25;22.53;;;10.47;;
313;SDS011;143;51.634;7.112;2023-03-03T16:45:57;22.03;;;11.60;;
313;SDS011;143;51.634;7.112;2023-03-03T16:48:50;26.73;;;11.80;;
313;SDS011;143;51.634;7.112;2023-03-03T16:59:10;23.40;;;12.37;;
313;SDS011;143;51.634;7.112;2023-03-03T17:13:15;20.73;;;11.63;;
313;SDS011;143;51.634;7.112;2023-03-03T17:16:13;24.97;;;10.67;;
313;SDS011;143;51.634;7.112;2023-03-03T17:18:51;20.87;;;11.27;;
313;SDS011;143;51.634;7.112;2023-03-03T17:21:36;22.63;;;11.17;;
313;SDS011;143;51.634;7.112;2023-03-03T17:29:58;19.37;;;10.30;;
313;SDS011;143;51.634;7.112;2023-03-03T17:35:41;27.27;;;11.10;;
313;SDS011;143;51.634;7.112;2023-03-03T17:43:55;27.00;;;11.60;;
313;SDS011;143;51.634;7.112;2023-03-03T17:46:34;22.50;;;10.97;;
313;SDS011;143;51.634;7.112;2023-03-03T17:49:20;36.90;;;14.37;;
313;SDS011;143;51.634;7.112;2023-03-03T18:03:13;30.17;;;12.10;;
313;SDS011;143;51.634;7.112;2023-03-03T18:06:15;27.00;;;12.37;;
313;SDS011;143;51.634;7.112;2023-03-03T18:19:11;29.77;;;12.60;;
313;SDS011;143;51.634;7.112;2023-03-03T18:37:52;43.33;;;19.50;;
313;SDS011;143;51.634;7.112;2023-03-03T18:40:29;44.30;;;19.67;;
313;SDS011;143;51.634;7.112;2023-03-03T18:42:58;35.37;;;16.93;;
313;SDS011;143;51.634;7.112;2023-03-03T18:46:03;37.73;;;19.27;;
313;SDS011;143;51.634;7.112;2023-03-03T18:48:48;40.70;;;18.43;;
313;SDS011;143;51.634;7.112;2023-03-03T18:56:43;30.40;;;14.90;;
313;SDS011;143;51.634;7.112;2023-03-03T19:02:16;31.40;;;16.00;;
313;SDS011;143;51.634;7.112;2023-03-03T19:07:21;30.60;;;12.73;;
313;SDS011;143;51.634;7.112;2023-03-03T19:09:54;30.93;;;13.87;;
313;SDS011;143;51.634;7.112;2023-03-03T19:20:51;21.43;;;11.57;;
313;SDS011;143;51.634;7.112;2023-03-03T19:23:21;23.60;;;11.37;;
313;SDS011;143;51.634;7.112;2023-03-03T19:28:55;21.97;;;12.67;;
313;SDS011;143;51.634;7.112;2023-03-03T19:42:49;27.53;;;13.30;;
313;SDS011;143;51.634;7.112;2023-03-03T19:45:40;29.37;;;12.70;;
313;SDS011;143;51.634;7.112;2023-03-03T19:48:24;24.80;;;11.67;;
313;SDS011;143;51.634;7.112;2023-03-03T19:53:42;27.77;;;11.77;;
313;SDS011;143;51.634;7.112;2023-03-03T19:56:40;24.73;;;10.47;;
313;SDS011;143;51.634;7.112;2023-03-03T19:59:18;29.30;;;12.80;;
313;SDS011;143;51.634;7.112;2023-03-03T20:02:02;25.60;;;11.70;;
313;SDS011;143;51.634;7.112;2023-03-03T20:04:56;20.23;;;10.00;;
313;SDS011;143;51.634;7.112;2023-03-03T20:10:07;22.77;;;11.30;;
313;SDS011;143;51.634;7.112;2023-03-03T20:20:48;20.60;;;10.40;;
313;SDS011;143;51.634;7.112;2023-03-03T20:23:36;22.80;;;9.70;;
313;SDS011;143;51.634;7.112;2023-03-03T20:37:21;17.37;;;8.47;;
313;SDS011;143;51.634;7.112;2023-03-03T20:40:02;10.47;;;5.20;;
313;SDS011;143;51.634;7.112;2023-03-03T20:53:38;9.80;;;4.07;;
313;SDS011;143;51.634;7.112;2023-03-03T20:56:27;4.83;;;3.77;;
313;SDS011;143;51.634;7.112;2023-03-03T20:59:16;8.83;;;4.07;;
313;SDS011;143;51.634;7.112;2023-03-03T21:04:51;7.87;;;3.80;;
313;SDS011;143;51.634;7.112;2023-03-03T21:08:00;7.57;;;3.37;;
313;SDS011;143;51.634;7.112;2023-03-03T21:10:31;4.80;;;3.13;;
313;SDS011;143;51.634;7.112;2023-03-03T21:15:53;5.57;;;3.30;;
313;SDS011;143;51.634;7.112;2023-03-03T21:18:23;4.60;;;2.70;;
313;SDS011;143;51.634;7.112;2023-03-03T21:20:50;5.50;;;3.50;;
313;SDS011;143;51.634;7.112;2023-03-03T21:23:15;9.03;;;2.90;;
313;SDS011;143;51.634;7.112;2023-03-03T21:25:46;6.13;;;3.33;;
313;SDS011;143;51.634;7.112;2023-03-03T21:33:46;8.50;;;3.17;;
313;SDS011;143;51.634;7.112;2023-03-03T21:36:15;7.20;;;4.00;;
313;SDS011;143;51.634;7.112;2023-03-03T21:38:41;12.37;;;3.47;;
313;SDS011;143;51.634;7.112;2023-03-03T21:41:08;14.80;;;3.77;;
313;SDS011;143;51.634;7.112;2023-03-03T21:43:35;8.07;;;3.80;;
313;SDS011;143;51.634;7.112;2023-03-03T21:46:02;9.20;;;4.60;;
313;SDS011;143;51.634;7.112;2023-03-03T21:48:28;4.90;;;3.57;;
313;SDS011;143;51.634;7.112;2023-03-03T21:50:53;7.13;;;3.63;;
313;SDS011;143;51.634;7.112;2023-03-03T21:53:19;14.00;;;3.23;;
313;SDS011;143;51.634;7.112;2023-03-03T21:55:47;13.20;;;4.00;;
313;SDS011;143;51.634;7.112;2023-03-03T21:58:16;14.93;;;4.47;;
313;SDS011;143;51.634;7.112;2023-03-03T22:00:42;8.80;;;3.83;;
313;SDS011;143;51.634;7.112;2023-03-03T22:03:08;11.53;;;3.87;;
313;SDS011;143;51.634;7.112;2023-03-03T22:05:35;8.43;;;4.40;;
313;SDS011;143;51.634;7.112;2023-03-03T22:08:00;10.73;;;4.07;;
313;SDS011;143;51.634;7.112;2023-03-03T22:10:26;12.43;;;3.80;;
313;SDS011;143;51.634;7.112;2023-03-03T22:12:52;9.40;;;4.40;;
313;SDS011;143;51.634;7.112;2023-03-03T22:15:18;13.73;;;5.53;;
313;SDS011;143;51.634;7.112;2023-03-03T22:17:43;14.90;;;3.53;;
313;SDS011;143;51.634;7.112;2023-03-03T22:20:09;16.57;;;4.67;;
313;SDS011;143;51.634;7.112;2023-03-03T22:22:36;14.00;;;4.07;;
313;SDS011;143;51.634;7.112;2023-03-03T22:25:01;10.53;;;3.60;;
313;SDS011;143;51.634;7.112;2023-03-03T22:27:27;19.87;;;4.30;;